Terminal Aerodrome Forecast
Issued by NWS Charleston, WV

Current Version | Previous Version | Text Only | Print | Product List | Glossary Off
Versions: 1 2 3 4 5 6 7 8 9 10 11 12 13 14 15 16 17 18 19 20 21 22 23 24

000
FTUS41 KRLX 221231 AAA
TAFCRW
TAF AMD
KCRW 221231Z 2213/2312 03006KT P6SM -SHRA BKN008 OVC020
     FM221600 02007KT 3SM +SHRA OVC007
     FM222100 04009KT 6SM SHRA OVC010
     FM222300 03007KT P6SM OVC020
     FM230700 05006KT P6SM OVC030=

USA.gov is the U.S. government's official web portal to all federal, state and local government web resources and services.